Time;durP1;ratioP1;P1;durP2;ratioP2;P2;SDS_P1;SDS_P2;PMS_P1;PMS_P2;Temp;Humidity;BMP_temperature;BMP_pressure;BME280_temperature;BME280_humidity;BME280_pressure;Samples;Min_cycle;Max_cycle;Signal;HPM_P1;HPM_P2
2023/11/02 00:02:28;;;;;;;3.03;1.75;;;6.30;99.90;;;;;;5002461;28;20720;-32
2023/11/02 00:04:55;;;;;;;1.60;1.50;;;6.30;99.90;;;;;;5000572;28;20041;-34
2023/11/02 00:07:21;;;;;;;2.42;1.75;;;6.30;99.90;;;;;;4999751;28;20120;-34
2023/11/02 00:09:48;;;;;;;1.50;1.30;;;6.20;99.90;;;;;;5004724;28;20615;-32
2023/11/02 00:12:18;;;;;;;1.77;1.67;;;6.20;99.90;;;;;;5002478;28;20403;-33
2023/11/02 00:14:47;;;;;;;2.90;1.70;;;6.20;99.90;;;;;;5004443;28;20068;-35
2023/11/02 00:17:35;;;;;;;1.80;1.50;;;6.20;99.90;;;;;;5003943;28;20677;-32
2023/11/02 00:20:11;;;;;;;2.85;1.77;;;6.00;99.90;;;;;;5001491;28;20549;-34
2023/11/02 00:22:44;;;;;;;1.55;1.42;;;6.00;99.90;;;;;;5001452;28;20038;-39
2023/11/02 00:25:20;;;;;;;1.48;1.38;;;6.10;99.90;;;;;;4978913;28;20511;-40
2023/11/02 00:27:46;;;;;;;1.50;1.40;;;6.10;99.90;;;;;;5002566;28;20029;-38
2023/11/02 00:30:12;;;;;;;1.40;1.30;;;6.10;99.90;;;;;;5003695;28;20360;-40
2023/11/02 00:32:37;;;;;;;1.85;1.60;;;6.10;99.90;;;;;;5002331;28;20103;-36
2023/11/02 00:35:04;;;;;;;4.57;1.73;;;6.00;99.90;;;;;;5006435;28;20064;-40
2023/11/02 00:37:30;;;;;;;1.88;1.40;;;5.90;99.90;;;;;;5006048;28;20076;-38
2023/11/02 00:39:56;;;;;;;1.27;1.20;;;5.80;99.90;;;;;;5004435;28;20021;-39
2023/11/02 00:42:23;;;;;;;7.13;1.55;;;5.80;99.90;;;;;;4987891;28;20033;-35
2023/11/02 00:44:48;;;;;;;1.33;1.23;;;5.70;99.90;;;;;;5005555;28;20688;-38
2023/11/02 00:47:18;;;;;;;1.27;1.17;;;5.50;99.90;;;;;;5007762;28;20049;-36
2023/11/02 00:49:43;;;;;;;2.13;1.40;;;5.50;99.90;;;;;;5010968;28;20033;-37
2023/11/02 00:52:09;;;;;;;1.60;1.50;;;5.50;99.90;;;;;;5005343;28;20475;-39
2023/11/02 00:54:47;;;;;;;1.40;1.30;;;5.50;99.90;;;;;;5003378;28;20109;-40
2023/11/02 00:57:19;;;;;;;1.73;1.30;;;5.50;99.90;;;;;;5004939;28;20526;-35
2023/11/02 00:59:45;;;;;;;2.25;1.15;;;5.50;99.90;;;;;;5003981;28;20026;-36
2023/11/02 01:02:12;;;;;;;30.65;3.45;;;5.60;99.90;;;;;;5001054;28;20657;-37
2023/11/02 01:04:44;;;;;;;7.80;1.55;;;5.50;99.90;;;;;;5004399;28;20028;-39
2023/11/02 01:07:11;;;;;;;1.40;1.30;;;5.40;99.90;;;;;;5004586;28;20026;-39
2023/11/02 01:09:50;;;;;;;1.60;1.50;;;5.40;99.90;;;;;;5002863;28;20029;-39
2023/11/02 01:12:36;;;;;;;1.92;1.83;;;5.30;99.90;;;;;;5005530;28;20402;-38
2023/11/02 01:15:10;;;;;;;3.38;2.63;;;5.40;99.90;;;;;;5003970;28;20026;-36
2023/11/02 01:17:38;;;;;;;2.22;2.03;;;5.30;99.90;;;;;;5003968;28;20026;-41
2023/11/02 01:20:39;;;;;;;2.25;2.10;;;5.30;99.90;;;;;;4990278;28;20430;-39
2023/11/02 01:23:09;;;;;;;4.10;2.00;;;5.20;99.90;;;;;;5004894;28;20475;-39
2023/11/02 01:25:45;;;;;;;2.53;2.17;;;5.20;99.90;;;;;;4986547;28;20472;-39
2023/11/02 01:28:22;;;;;;;2.28;1.80;;;5.30;99.90;;;;;;5003026;28;20038;-39
2023/11/02 01:31:07;;;;;;;1.83;1.73;;;5.20;99.90;;;;;;5003370;28;20041;-38
2023/11/02 01:33:38;;;;;;;2.10;1.90;;;5.20;99.90;;;;;;5002790;28;20495;-37
2023/11/02 01:36:05;;;;;;;1.90;1.80;;;5.10;99.90;;;;;;5002505;28;20033;-39
2023/11/02 01:38:32;;;;;;;1.80;1.70;;;5.10;99.90;;;;;;5002585;28;20061;-39
2023/11/02 01:41:08;;;;;;;2.45;2.15;;;5.10;99.90;;;;;;5002637;28;20295;-38
2023/11/02 01:43:50;;;;;;;8.57;2.10;;;5.10;99.90;;;;;;5000750;28;20133;-39
2023/11/02 01:46:32;;;;;;;1.55;1.45;;;5.10;99.90;;;;;;5003175;28;20466;-39
2023/11/02 01:49:08;;;;;;;1.50;1.40;;;5.10;99.90;;;;;;5002265;28;20029;-39
2023/11/02 01:51:46;;;;;;;1.50;1.40;;;4.90;99.90;;;;;;5003691;28;20552;-39
2023/11/02 01:54:12;;;;;;;1.80;1.70;;;4.80;99.90;;;;;;5002319;28;20030;-38
2023/11/02 01:56:41;;;;;;;1.98;1.75;;;4.80;99.90;;;;;;5003276;28;20561;-39
2023/11/02 01:59:28;;;;;;;3.17;1.88;;;4.80;99.90;;;;;;5004667;28;20109;-38
2023/11/02 02:02:08;;;;;;;2.33;1.70;;;4.80;99.90;;;;;;5002242;28;20057;-39
2023/11/02 02:04:47;;;;;;;2.03;1.48;;;4.70;99.90;;;;;;5003510;28;20018;-41
2023/11/02 02:07:36;;;;;;;1.88;1.75;;;4.60;99.90;;;;;;5002575;28;20034;-41
2023/11/02 02:10:15;;;;;;;1.77;1.60;;;4.60;99.90;;;;;;5000904;28;20234;-32
2023/11/02 02:12:57;;;;;;;2.10;1.90;;;4.60;99.90;;;;;;5002071;28;20498;-35
2023/11/02 02:15:33;;;;;;;2.22;1.80;;;4.60;99.90;;;;;;5001826;28;20064;-40
2023/11/02 02:18:07;;;;;;;1.83;1.60;;;4.70;99.90;;;;;;5002698;28;20037;-41
2023/11/02 02:20:36;;;;;;;2.25;1.30;;;4.60;99.90;;;;;;5004918;28;20022;-39
2023/11/02 02:23:16;;;;;;;1.80;1.50;;;4.70;99.90;;;;;;5003145;28;20048;-38
2023/11/02 02:26:33;;;;;;;1.23;1.23;;;4.70;99.90;;;;;;5001243;28;20056;-39
2023/11/02 02:29:35;;;;;;;1.38;1.30;;;4.60;99.90;;;;;;4941822;29;20031;-38
2023/11/02 02:32:30;;;;;;;1.98;1.70;;;4.60;99.90;;;;;;4941155;28;20066;-41
2023/11/02 02:35:03;;;;;;;5.85;1.52;;;4.60;99.90;;;;;;5000349;28;20045;-37
2023/11/02 02:37:34;;;;;;;1.67;1.50;;;4.50;99.90;;;;;;5002385;28;21057;-40
2023/11/02 02:40:06;;;;;;;2.78;1.75;;;4.60;99.90;;;;;;5004645;28;20030;-42
2023/11/02 02:42:35;;;;;;;1.33;1.33;;;4.60;99.90;;;;;;5002691;28;20129;-41
2023/11/02 02:45:06;;;;;;;1.67;1.58;;;4.50;99.90;;;;;;5002369;28;20041;-41
2023/11/02 02:47:33;;;;;;;1.92;1.60;;;4.50;99.90;;;;;;4983259;28;20491;-38
2023/11/02 02:50:02;;;;;;;1.50;1.40;;;4.50;99.90;;;;;;5003913;28;20129;-35
2023/11/02 02:52:28;;;;;;;;;;;4.40;99.90;;;;;;5000901;28;20026;-40
2023/11/02 02:54:57;;;;;;;1.48;1.42;;;4.40;99.90;;;;;;5000398;28;19917;-40
2023/11/02 02:57:30;;;;;;;1.20;1.20;;;4.20;99.90;;;;;;5002207;28;20530;-40
2023/11/02 02:59:59;;;;;;;22.60;3.78;;;4.10;99.90;;;;;;5001335;28;20033;-40
2023/11/02 03:02:32;;;;;;;1.13;1.13;;;3.90;99.90;;;;;;5000956;28;20038;-40
2023/11/02 03:04:59;;;;;;;1.10;1.10;;;3.90;99.90;;;;;;5002595;28;20021;-40
2023/11/02 03:07:28;;;;;;;1.13;1.13;;;4.00;99.90;;;;;;5000350;28;20033;-40
2023/11/02 03:10:01;;;;;;;1.30;1.30;;;4.10;99.90;;;;;;5001992;28;20037;-38
2023/11/02 03:12:30;;;;;;;1.88;1.67;;;4.10;99.90;;;;;;5001455;28;20029;-32
2023/11/02 03:15:04;;;;;;;1.80;1.70;;;4.20;99.90;;;;;;5001841;28;20091;-32
2023/11/02 03:18:07;;;;;;;3.03;1.80;;;4.20;99.90;;;;;;5000898;28;20040;-32
2023/11/02 03:20:32;;;;;;;2.13;1.92;;;4.30;99.90;;;;;;5006918;28;20048;-33
2023/11/02 03:23:38;;;;;;;4.80;2.00;;;4.30;99.90;;;;;;5002652;28;20029;-32
2023/11/02 03:26:23;;;;;;;1.85;1.67;;;4.30;99.90;;;;;;5001646;28;20057;-32
2023/11/02 03:29:04;;;;;;;2.47;1.60;;;4.30;99.90;;;;;;5001822;28;20073;-34
2023/11/02 03:31:54;;;;;;;1.92;1.83;;;4.30;99.90;;;;;;4986135;28;20037;-32
2023/11/02 03:35:01;;;;;;;1.90;1.80;;;4.20;99.90;;;;;;4999822;28;20038;-32
2023/11/02 03:37:54;;;;;;;2.30;1.80;;;4.20;99.90;;;;;;5000463;28;20132;-32
2023/11/02 03:40:39;;;;;;;2.10;2.00;;;4.20;99.90;;;;;;4996633;28;20061;-34
2023/11/02 03:43:24;;;;;;;1.65;1.55;;;4.20;99.90;;;;;;5002338;28;20026;-33
2023/11/02 03:46:17;;;;;;;1.38;1.33;;;4.30;99.90;;;;;;5002072;28;20548;-32
2023/11/02 03:49:09;;;;;;;1.67;1.58;;;4.40;99.90;;;;;;5004048;28;20085;-35
2023/11/02 03:52:02;;;;;;;1.63;1.52;;;4.50;99.90;;;;;;5001944;28;20034;-30
2023/11/02 03:54:42;;;;;;;1.67;1.58;;;4.60;99.90;;;;;;5004057;28;20030;-30
2023/11/02 03:57:27;;;;;;;1.70;1.60;;;4.60;99.90;;;;;;5001169;28;20033;-30
2023/11/02 04:00:07;;;;;;;1.35;1.25;;;4.70;99.90;;;;;;5004389;28;20388;-30
2023/11/02 04:02:37;;;;;;;2.60;2.10;;;4.70;99.90;;;;;;5002026;28;20037;-37
2023/11/02 04:05:19;;;;;;;2.10;1.63;;;4.70;99.90;;;;;;5002114;28;20026;-31
2023/11/02 04:08:24;;;;;;;2.35;2.15;;;4.70;99.90;;;;;;4985163;28;20030;-30
2023/11/02 04:10:59;;;;;;;1.55;1.45;;;4.80;99.90;;;;;;5007608;28;20484;-33
2023/11/02 04:13:36;;;;;;;1.73;1.58;;;4.80;99.90;;;;;;5005994;28;20029;-32
2023/11/02 04:16:02;;;;;;;1.77;1.67;;;4.80;99.90;;;;;;5006352;28;20280;-30
2023/11/02 04:18:28;;;;;;;1.50;1.40;;;4.80;99.90;;;;;;5008504;28;20542;-33
2023/11/02 04:20:53;;;;;;;2.10;1.67;;;4.80;99.90;;;;;;5007314;28;20511;-33
2023/11/02 04:23:21;;;;;;;1.80;1.70;;;4.80;99.90;;;;;;5005862;28;20045;-30
2023/11/02 04:25:47;;;;;;;1.65;1.50;;;4.80;99.90;;;;;;5007481;28;20606;-34
2023/11/02 04:28:13;;;;;;;1.85;1.58;;;4.90;99.90;;;;;;5007280;28;20049;-35
2023/11/02 04:30:39;;;;;;;1.80;1.70;;;5.00;99.90;;;;;;5006904;28;20241;-33
2023/11/02 04:33:04;;;;;;;1.60;1.50;;;5.10;99.90;;;;;;5006058;28;20061;-32
2023/11/02 04:35:30;;;;;;;3.72;2.15;;;5.20;99.90;;;;;;5007331;28;20532;-31
2023/11/02 04:38:06;;;;;;;3.42;1.40;;;5.30;99.90;;;;;;4989251;28;20038;-33
2023/11/02 04:40:32;;;;;;;1.48;1.40;;;5.50;99.90;;;;;;5006020;28;20026;-32
2023/11/02 04:42:59;;;;;;;1.70;1.45;;;5.70;99.90;;;;;;4990681;28;20395;-29
2023/11/02 04:45:25;;;;;;;1.40;1.30;;;6.00;99.90;;;;;;5007735;28;20312;-31
2023/11/02 04:47:51;;;;;;;1.60;1.40;;;6.40;99.90;;;;;;5005266;28;20033;-31
2023/11/02 04:50:19;;;;;;;1.80;1.23;;;6.60;99.90;;;;;;4991341;28;20022;-30
2023/11/02 04:52:44;;;;;;;3.00;1.80;;;6.70;99.90;;;;;;5005052;28;20041;-31
2023/11/02 04:55:10;;;;;;;1.77;1.42;;;6.80;99.90;;;;;;5007537;28;20029;-31
2023/11/02 04:57:36;;;;;;;1.95;1.40;;;6.90;99.90;;;;;;5005408;28;20062;-30
2023/11/02 05:00:03;;;;;;;1.23;1.23;;;6.90;99.90;;;;;;5006501;28;20126;-32
2023/11/02 05:02:30;;;;;;;1.10;1.10;;;7.00;99.90;;;;;;5003366;28;20058;-37
2023/11/02 05:04:55;;;;;;;1.73;1.27;;;7.00;99.90;;;;;;5005653;28;20026;-39
2023/11/02 05:07:21;;;;;;;1.20;1.20;;;7.00;99.90;;;;;;5004527;28;20025;-37
2023/11/02 05:09:47;;;;;;;1.42;1.33;;;7.00;99.90;;;;;;5004031;28;20029;-41
2023/11/02 05:12:12;;;;;;;1.15;1.05;;;7.10;99.90;;;;;;5003731;28;20770;-35
2023/11/02 05:14:38;;;;;;;1.58;1.20;;;7.10;99.90;;;;;;5004949;28;20579;-42
2023/11/02 05:17:04;;;;;;;1.30;1.20;;;7.10;99.90;;;;;;5002799;28;20670;-41
2023/11/02 05:19:30;;;;;;;0.98;0.98;;;7.10;99.90;;;;;;5004483;28;20022;-40
2023/11/02 05:21:57;;;;;;;1.83;1.10;;;7.10;99.90;;;;;;5004132;28;20108;-39
2023/11/02 05:24:22;;;;;;;1.67;1.58;;;7.10;99.90;;;;;;5002088;28;20116;-38
2023/11/02 05:26:48;;;;;;;1.40;1.30;;;7.10;99.90;;;;;;5002222;28;20030;-42
2023/11/02 05:29:13;;;;;;;1.50;1.30;;;7.10;99.90;;;;;;5004052;28;20438;-35
2023/11/02 05:31:39;;;;;;;1.50;1.30;;;7.20;99.90;;;;;;5005831;28;20077;-35
2023/11/02 05:34:05;;;;;;;1.70;1.40;;;7.20;99.90;;;;;;5004871;28;20049;-34
2023/11/02 05:36:30;;;;;;;1.42;1.30;;;7.20;99.90;;;;;;5004711;28;20133;-34
2023/11/02 05:38:56;;;;;;;1.50;1.40;;;7.30;99.90;;;;;;5005944;28;20028;-32
2023/11/02 05:41:22;;;;;;;1.60;1.40;;;7.40;99.90;;;;;;5004081;28;20033;-33
2023/11/02 05:43:48;;;;;;;1.67;1.40;;;7.40;99.90;;;;;;5005536;28;20066;-33
2023/11/02 05:46:13;;;;;;;2.80;1.60;;;7.40;99.90;;;;;;5003353;28;20045;-34
2023/11/02 05:48:39;;;;;;;1.40;1.30;;;7.60;99.90;;;;;;5004458;28;20034;-35
2023/11/02 05:51:05;;;;;;;1.38;1.10;;;7.80;99.90;;;;;;5005620;28;20040;-31
2023/11/02 05:53:31;;;;;;;1.92;1.25;;;7.90;99.90;;;;;;5006645;28;20038;-31
2023/11/02 05:55:56;;;;;;;1.73;1.20;;;7.90;99.90;;;;;;5004709;28;20414;-35
2023/11/02 05:58:22;;;;;;;1.00;1.00;;;8.00;99.90;;;;;;5005113;28;20119;-32
2023/11/02 06:00:48;;;;;;;1.42;1.33;;;8.10;99.90;;;;;;5002073;28;20484;-32
2023/11/02 06:03:14;;;;;;;1.80;0.98;;;8.10;99.90;;;;;;5004053;28;20069;-37
2023/11/02 06:05:40;;;;;;;1.15;1.10;;;8.10;99.90;;;;;;5002365;28;20487;-35
2023/11/02 06:08:05;;;;;;;0.93;0.93;;;8.20;99.90;;;;;;5002845;28;20060;-32
2023/11/02 06:10:31;;;;;;;2.35;1.15;;;8.20;99.90;;;;;;5002489;28;20026;-34
2023/11/02 06:12:57;;;;;;;2.10;0.98;;;8.30;99.90;;;;;;5005220;28;20074;-34
2023/11/02 06:15:23;;;;;;;1.30;0.90;;;8.30;99.90;;;;;;5005407;28;20018;-34
2023/11/02 06:17:48;;;;;;;1.38;1.00;;;8.20;99.90;;;;;;4987626;28;20085;-31
2023/11/02 06:20:14;;;;;;;0.90;0.90;;;8.30;99.90;;;;;;5001995;28;20049;-31
2023/11/02 06:22:41;;;;;;;1.38;1.05;;;8.30;99.90;;;;;;5005287;28;20032;-39
2023/11/02 06:25:08;;;;;;;0.90;0.90;;;8.40;99.90;;;;;;5003500;28;20057;-32
2023/11/02 06:27:34;;;;;;;1.83;1.33;;;8.40;99.90;;;;;;5003325;28;20022;-31
2023/11/02 06:29:59;;;;;;;1.25;1.17;;;8.40;99.90;;;;;;4988255;28;20384;-29
2023/11/02 06:32:25;;;;;;;1.33;0.98;;;8.40;99.90;;;;;;5003991;28;20037;-31
2023/11/02 06:34:51;;;;;;;1.42;1.10;;;8.40;99.90;;;;;;5003792;28;20554;-30
2023/11/02 06:37:19;;;;;;;1.70;1.20;;;8.40;99.90;;;;;;5005097;28;20050;-30
2023/11/02 06:39:45;;;;;;;1.33;1.23;;;8.30;99.90;;;;;;5004108;28;20506;-30
2023/11/02 06:42:12;;;;;;;1.77;1.10;;;8.20;99.90;;;;;;5003704;28;20412;-32
2023/11/02 06:44:43;;;;;;;1.60;1.00;;;8.20;99.90;;;;;;4985476;28;20061;-32
2023/11/02 06:47:12;;;;;;;1.20;1.10;;;8.20;99.90;;;;;;5004157;28;20026;-32
2023/11/02 06:49:38;;;;;;;1.00;1.00;;;8.20;99.90;;;;;;5004712;28;20109;-32
2023/11/02 06:52:04;;;;;;;1.20;1.10;;;8.20;99.90;;;;;;5001390;28;20052;-33
2023/11/02 06:54:30;;;;;;;1.48;1.10;;;8.20;99.90;;;;;;5002274;28;20021;-35
2023/11/02 06:56:56;;;;;;;1.10;1.10;;;8.20;99.90;;;;;;5002281;28;20034;-33
2023/11/02 06:59:21;;;;;;;1.73;1.20;;;8.20;99.90;;;;;;5003177;28;20026;-33
2023/11/02 07:01:50;;;;;;;1.80;1.17;;;8.30;99.90;;;;;;5000438;28;20030;-34
2023/11/02 07:04:24;;;;;;;1.58;1.10;;;8.30;99.90;;;;;;5003015;28;20105;-32
2023/11/02 07:06:50;;;;;;;1.50;1.13;;;8.40;99.90;;;;;;5000924;28;20268;-32
2023/11/02 07:09:16;;;;;;;2.10;1.00;;;8.40;99.90;;;;;;4998042;28;20719;-34
2023/11/02 07:11:42;;;;;;;1.13;1.10;;;8.40;99.90;;;;;;4999026;28;20034;-36
2023/11/02 07:14:07;;;;;;;4.10;1.65;;;8.40;99.90;;;;;;4985081;28;20043;-32
2023/11/02 07:16:33;;;;;;;0.93;0.93;;;8.40;99.90;;;;;;4999882;28;20502;-34
2023/11/02 07:19:01;;;;;;;1.30;1.20;;;8.40;99.90;;;;;;5001678;28;20498;-34
2023/11/02 07:21:26;;;;;;;1.30;1.20;;;8.40;99.90;;;;;;5003173;28;20447;-34
2023/11/02 07:23:52;;;;;;;1.75;1.20;;;8.50;99.90;;;;;;5003402;28;20030;-33
2023/11/02 07:26:17;;;;;;;1.00;1.00;;;8.50;99.90;;;;;;5002131;28;20101;-32
2023/11/02 07:28:44;;;;;;;1.15;1.10;;;8.50;99.90;;;;;;5003763;28;20045;-32
2023/11/02 07:31:09;;;;;;;2.03;1.40;;;8.60;99.90;;;;;;4999593;28;20042;-36
2023/11/02 07:33:40;;;;;;;0.90;0.90;;;8.60;99.90;;;;;;4981017;28;20411;-35
2023/11/02 07:36:15;;;;;;;1.08;0.93;;;8.70;99.90;;;;;;5001243;28;20519;-33
2023/11/02 07:38:40;;;;;;;1.20;1.10;;;8.80;99.90;;;;;;5004896;28;20648;-35
2023/11/02 07:41:06;;;;;;;0.95;0.90;;;8.80;99.90;;;;;;5005789;28;20029;-35
2023/11/02 07:43:33;;;;;;;1.30;1.27;;;8.80;99.90;;;;;;5002442;28;20030;-32
2023/11/02 07:45:59;;;;;;;1.13;1.05;;;8.80;99.90;;;;;;5003648;28;20029;-32
2023/11/02 07:48:24;;;;;;;1.20;1.10;;;8.80;99.90;;;;;;5006691;28;20038;-32
2023/11/02 07:50:50;;;;;;;3.70;1.60;;;8.90;99.90;;;;;;5003392;28;20033;-36
2023/11/02 07:53:19;;;;;;;1.23;1.10;;;8.90;99.90;;;;;;5006939;28;20026;-37
2023/11/02 07:55:45;;;;;;;1.95;1.00;;;9.00;99.90;;;;;;5004567;28;20092;-37
2023/11/02 07:58:11;;;;;;;2.47;1.00;;;9.00;99.90;;;;;;5008434;28;20487;-37
2023/11/02 08:00:36;;;;;;;1.27;1.17;;;9.00;99.90;;;;;;5007580;28;20514;-37
2023/11/02 08:03:03;;;;;;;1.35;1.00;;;9.00;99.90;;;;;;5006830;28;20654;-37
2023/11/02 08:05:29;;;;;;;1.55;1.45;;;9.00;99.90;;;;;;5006325;28;20021;-36
2023/11/02 08:07:54;;;;;;;2.05;1.20;;;9.00;99.90;;;;;;5004716;28;20025;-39
2023/11/02 08:10:20;;;;;;;1.27;1.20;;;9.00;99.90;;;;;;5001591;28;20034;-39
2023/11/02 08:12:46;;;;;;;1.73;1.23;;;9.10;99.90;;;;;;5001740;28;20261;-37
2023/11/02 08:15:11;;;;;;;1.40;0.90;;;9.10;99.90;;;;;;5004455;28;20079;-36
2023/11/02 08:17:39;;;;;;;1.95;1.13;;;9.10;99.90;;;;;;5006166;28;20034;-39
2023/11/02 08:20:05;;;;;;;1.60;1.10;;;9.10;99.90;;;;;;5003728;28;20080;-39
2023/11/02 08:22:31;;;;;;;1.00;1.00;;;9.10;99.90;;;;;;4998537;28;20038;-34
2023/11/02 08:24:57;;;;;;;1.25;1.17;;;9.10;99.90;;;;;;4993865;28;20042;-37
2023/11/02 08:27:22;;;;;;;1.77;1.10;;;9.20;99.90;;;;;;4983942;28;20030;-37
2023/11/02 08:29:48;;;;;;;1.23;1.13;;;9.20;99.90;;;;;;5001172;28;20643;-38
2023/11/02 08:32:14;;;;;;;0.98;0.98;;;9.30;99.90;;;;;;5001055;28;20048;-33
2023/11/02 08:34:43;;;;;;;1.30;1.20;;;9.40;99.90;;;;;;5008994;28;20060;-30
2023/11/02 08:37:11;;;;;;;1.10;1.10;;;9.50;99.90;;;;;;5004850;28;20034;-30
2023/11/02 08:39:40;;;;;;;1.38;1.10;;;9.50;99.90;;;;;;5007867;28;20054;-30
2023/11/02 08:42:06;;;;;;;1.83;1.00;;;9.60;99.90;;;;;;5005048;28;20030;-31
2023/11/02 08:44:31;;;;;;;1.85;1.25;;;9.60;99.90;;;;;;5004297;28;20390;-31
2023/11/02 08:46:57;;;;;;;1.98;1.60;;;9.60;99.90;;;;;;5001300;28;20446;-31
2023/11/02 08:49:23;;;;;;;1.42;1.33;;;9.50;99.90;;;;;;5000458;28;20026;-33
2023/11/02 08:51:49;;;;;;;2.10;1.45;;;9.40;99.90;;;;;;5005109;28;20044;-33
2023/11/02 08:54:15;;;;;;;1.60;1.40;;;9.40;99.90;;;;;;4998022;28;20072;-32
2023/11/02 08:56:42;;;;;;;1.75;1.40;;;9.40;99.90;;;;;;4998238;28;20029;-36
2023/11/02 08:59:08;;;;;;;1.20;1.20;;;9.40;99.90;;;;;;4988987;28;20503;-31
2023/11/02 09:01:34;;;;;;;1.45;1.30;;;9.40;99.90;;;;;;5001601;28;20050;-39
2023/11/02 09:04:00;;;;;;;2.05;1.42;;;9.40;99.90;;;;;;5001063;28;20038;-34
2023/11/02 09:06:26;;;;;;;1.42;1.33;;;9.40;99.90;;;;;;5001256;28;20038;-38
2023/11/02 09:08:56;;;;;;;1.60;1.50;;;9.50;99.90;;;;;;5004904;28;20414;-38
2023/11/02 09:11:22;;;;;;;1.60;1.50;;;9.50;99.90;;;;;;4997680;28;20511;-36
2023/11/02 09:13:48;;;;;;;4.03;1.65;;;9.50;99.90;;;;;;5001558;28;20037;-40
2023/11/02 09:16:14;;;;;;;3.92;1.95;;;9.50;99.90;;;;;;5000351;28;20034;-38
2023/11/02 09:18:39;;;;;;;3.85;1.63;;;9.40;99.90;;;;;;4999910;28;20029;-40
2023/11/02 09:21:06;;;;;;;2.47;1.80;;;9.40;99.90;;;;;;4987449;28;20029;-40
2023/11/02 09:23:35;;;;;;;3.67;2.30;;;9.40;99.90;;;;;;5002371;28;20060;-39
2023/11/02 09:26:05;;;;;;;3.13;2.08;;;9.40;99.90;;;;;;5003361;28;20079;-37
2023/11/02 09:28:31;;;;;;;1.85;1.58;;;9.40;99.90;;;;;;5003829;28;20452;-39
2023/11/02 09:30:57;;;;;;;5.82;1.80;;;9.40;99.90;;;;;;4994332;28;20529;-38
2023/11/02 09:33:22;;;;;;;2.85;1.60;;;9.50;99.90;;;;;;5003450;28;20117;-37
2023/11/02 09:35:48;;;;;;;2.03;1.60;;;9.40;99.90;;;;;;4997580;28;20111;-37
2023/11/02 09:38:14;;;;;;;2.92;1.40;;;9.40;99.90;;;;;;4996652;28;20534;-38
2023/11/02 09:40:40;;;;;;;2.92;1.98;;;9.30;99.90;;;;;;4983420;28;20056;-35
2023/11/02 09:43:10;;;;;;;2.55;1.63;;;9.30;99.90;;;;;;4996825;28;20440;-31
2023/11/02 09:45:38;;;;;;;4.40;1.48;;;9.40;99.90;;;;;;5008244;28;20105;-33
2023/11/02 09:48:04;;;;;;;1.73;1.63;;;9.40;99.90;;;;;;5006484;28;20468;-34
2023/11/02 09:50:30;;;;;;;2.47;1.80;;;9.40;99.90;;;;;;5006896;28;20145;-30
2023/11/02 09:52:56;;;;;;;2.00;1.50;;;9.40;99.90;;;;;;5005096;28;20109;-31
2023/11/02 09:55:23;;;;;;;5.35;1.58;;;9.40;99.90;;;;;;5002263;28;20033;-30
2023/11/02 09:57:52;;;;;;;2.75;1.67;;;9.50;99.90;;;;;;5009623;28;20040;-30
2023/11/02 10:00:19;;;;;;;2.50;1.50;;;9.50;99.90;;;;;;5004423;28;20066;-33
2023/11/02 10:02:49;;;;;;;3.42;1.40;;;9.50;99.90;;;;;;5004137;28;20125;-30
2023/11/02 10:05:15;;;;;;;1.58;1.35;;;9.60;99.90;;;;;;5003549;28;20056;-31
2023/11/02 10:07:41;;;;;;;1.50;1.40;;;9.60;99.90;;;;;;5007158;28;20066;-33
2023/11/02 10:10:11;;;;;;;0.90;0.90;;;9.60;99.90;;;;;;5008463;28;20065;-29
2023/11/02 10:12:40;;;;;;;2.33;1.45;;;9.60;99.90;;;;;;5006636;28;20034;-37
2023/11/02 10:15:08;;;;;;;3.28;1.60;;;9.50;99.90;;;;;;5002403;28;20024;-39
2023/11/02 10:17:37;;;;;;;1.75;1.65;;;9.50;99.90;;;;;;5003874;28;20070;-39
2023/11/02 10:20:14;;;;;;;2.95;1.75;;;9.60;99.90;;;;;;5003868;28;20419;-36
2023/11/02 10:22:42;;;;;;;1.83;1.50;;;9.50;99.90;;;;;;5006790;28;20042;-39
2023/11/02 10:25:13;;;;;;;1.80;1.58;;;9.50;99.90;;;;;;5000341;28;20103;-38
2023/11/02 10:27:41;;;;;;;2.75;1.90;;;9.50;99.90;;;;;;5004351;28;20034;-38
2023/11/02 10:30:07;;;;;;;1.45;1.35;;;9.60;99.90;;;;;;4984530;28;20521;-39
2023/11/02 10:32:35;;;;;;;2.20;1.33;;;9.60;99.90;;;;;;4998083;28;20074;-38
2023/11/02 10:35:00;;;;;;;1.90;1.30;;;9.50;99.90;;;;;;4999775;28;20605;-37
2023/11/02 10:37:34;;;;;;;3.38;1.60;;;9.50;99.90;;;;;;5001819;28;20026;-37
2023/11/02 10:40:00;;;;;;;1.60;1.50;;;9.50;99.90;;;;;;5002515;28;20274;-39
2023/11/02 10:42:27;;;;;;;1.73;1.63;;;9.60;99.90;;;;;;5001735;28;20058;-38
2023/11/02 10:44:54;;;;;;;4.75;2.08;;;9.70;99.90;;;;;;4999701;28;20430;-39
2023/11/02 10:47:24;;;;;;;2.90;1.60;;;9.70;99.90;;;;;;5005410;28;20034;-38
2023/11/02 10:49:53;;;;;;;1.70;1.60;;;9.70;99.90;;;;;;5002827;28;20761;-39
2023/11/02 10:52:27;;;;;;;4.00;1.52;;;9.60;99.90;;;;;;5007229;28;20034;-29
2023/11/02 10:55:19;;;;;;;1.90;1.52;;;9.60;99.90;;;;;;5008203;28;20049;-29
2023/11/02 10:57:46;;;;;;;4.28;1.50;;;9.70;99.90;;;;;;5006673;28;20123;-29
2023/11/02 11:00:14;;;;;;;3.53;1.67;;;9.70;99.90;;;;;;5005429;28;20044;-34
2023/11/02 11:02:41;;;;;;;1.48;1.38;;;9.70;99.90;;;;;;5006213;28;20507;-30
2023/11/02 11:05:10;;;;;;;2.05;1.55;;;9.70;99.90;;;;;;5006478;28;20164;-32
2023/11/02 11:07:37;;;;;;;1.52;1.42;;;9.70;99.90;;;;;;4998939;28;20121;-31
2023/11/02 11:10:03;;;;;;;2.80;1.40;;;9.80;99.90;;;;;;4976790;28;20480;-30
2023/11/02 11:12:30;;;;;;;1.30;1.20;;;9.70;99.90;;;;;;5004500;28;20030;-31
2023/11/02 11:14:58;;;;;;;2.30;1.48;;;9.80;99.90;;;;;;5012707;28;20499;-31
2023/11/02 11:17:24;;;;;;;1.33;1.23;;;9.80;99.90;;;;;;5003791;28;20494;-31
2023/11/02 11:19:50;;;;;;;1.33;1.23;;;9.90;99.90;;;;;;5002700;28;20088;-30
2023/11/02 11:22:30;;;;;;;1.33;1.23;;;9.80;99.90;;;;;;5005076;28;20018;-41
2023/11/02 11:25:03;;;;;;;2.63;1.38;;;9.80;99.90;;;;;;5004493;28;20026;-38
2023/11/02 11:27:34;;;;;;;2.15;1.50;;;9.80;99.90;;;;;;4996471;28;20033;-38
2023/11/02 11:30:03;;;;;;;3.40;1.48;;;9.80;99.90;;;;;;5011510;28;20172;-40
2023/11/02 11:32:37;;;;;;;2.03;1.40;;;9.80;99.90;;;;;;4997011;28;20038;-38
2023/11/02 11:35:09;;;;;;;2.22;1.90;;;9.90;99.90;;;;;;5001227;28;20416;-41
2023/11/02 11:37:39;;;;;;;2.33;2.10;;;9.70;99.90;;;;;;5005304;28;20038;-40
2023/11/02 11:40:08;;;;;;;1.95;1.67;;;9.60;99.90;;;;;;5005921;28;20033;-41
2023/11/02 11:42:54;;;;;;;3.13;2.20;;;9.40;99.90;;;;;;4988428;28;20595;-40
2023/11/02 11:45:37;;;;;;;3.63;2.30;;;9.30;99.90;;;;;;5000616;28;20053;-40
2023/11/02 11:48:07;;;;;;;1.90;1.80;;;9.30;99.90;;;;;;5007983;28;20029;-41
2023/11/02 11:50:40;;;;;;;2.65;2.45;;;9.40;99.90;;;;;;5003605;28;20041;-41
2023/11/02 11:53:25;;;;;;;2.45;1.90;;;9.30;99.90;;;;;;5006603;28;20158;-40
2023/11/02 11:55:56;;;;;;;2.28;1.88;;;9.30;99.90;;;;;;5003443;28;20114;-38
2023/11/02 11:58:42;;;;;;;2.47;2.28;;;9.40;99.90;;;;;;5002889;28;20022;-40
2023/11/02 12:01:17;;;;;;;5.00;2.03;;;9.30;99.90;;;;;;5003426;28;20473;-42
2023/11/02 12:03:45;;;;;;;2.00;1.80;;;9.30;99.90;;;;;;5007637;28;20034;-29
2023/11/02 12:06:15;;;;;;;3.25;2.00;;;9.30;99.90;;;;;;5006656;28;20130;-29
2023/11/02 12:08:48;;;;;;;3.03;2.40;;;9.30;99.90;;;;;;5005586;28;20062;-30
2023/11/02 12:11:24;;;;;;;2.35;2.15;;;9.30;99.90;;;;;;5006914;28;20033;-33
2023/11/02 12:13:52;;;;;;;2.88;2.08;;;9.20;99.90;;;;;;5000623;28;22210;-36
2023/11/02 12:16:21;;;;;;;2.83;2.20;;;9.20;99.90;;;;;;5004820;28;20041;-29
2023/11/02 12:18:51;;;;;;;4.13;2.35;;;9.20;99.90;;;;;;4999009;28;20029;-32
2023/11/02 12:21:19;;;;;;;2.22;1.77;;;9.20;99.90;;;;;;4998483;28;20096;-31
2023/11/02 12:23:45;;;;;;;3.08;1.88;;;9.20;99.90;;;;;;4999939;28;20056;-30
2023/11/02 12:26:11;;;;;;;2.08;1.88;;;9.20;99.90;;;;;;5001527;28;20044;-32
2023/11/02 12:28:45;;;;;;;2.55;2.10;;;9.20;99.90;;;;;;5001020;28;20041;-29
2023/11/02 12:31:11;;;;;;;2.78;2.58;;;9.30;99.90;;;;;;5002086;28;20042;-33
2023/11/02 12:33:37;;;;;;;2.72;1.90;;;9.30;99.90;;;;;;5003115;28;20061;-31
2023/11/02 12:36:05;;;;;;;2.40;1.90;;;9.30;99.90;;;;;;5002942;28;20098;-29
2023/11/02 12:38:43;;;;;;;2.83;2.13;;;9.40;99.90;;;;;;5002496;28;20064;-31
2023/11/02 12:41:14;;;;;;;2.42;2.17;;;9.40;99.90;;;;;;5006792;28;20041;-30
2023/11/02 12:43:40;;;;;;;3.25;2.28;;;9.50;99.90;;;;;;4988582;28;20054;-29
2023/11/02 12:46:09;;;;;;;2.58;2.13;;;9.50;99.90;;;;;;5003832;28;20044;-29
2023/11/02 12:48:37;;;;;;;3.75;2.53;;;9.50;99.90;;;;;;4987024;28;20034;-28
2023/11/02 12:51:31;;;;;;;3.97;3.58;;;9.40;99.90;;;;;;5006347;28;20137;-30
2023/11/02 12:54:07;;;;;;;3.65;2.90;;;9.40;99.90;;;;;;4992036;28;20042;-29
2023/11/02 12:56:34;;;;;;;2.30;1.88;;;9.40;99.90;;;;;;5005026;28;20037;-29
2023/11/02 12:59:05;;;;;;;2.42;2.20;;;9.40;99.90;;;;;;5006939;28;20030;-32
2023/11/02 13:01:48;;;;;;;3.25;2.10;;;9.30;99.90;;;;;;5002051;28;20045;-31
2023/11/02 13:04:15;;;;;;;2.95;2.33;;;9.30;99.90;;;;;;5007062;28;20149;-34
2023/11/02 13:06:42;;;;;;;2.92;2.20;;;9.30;99.90;;;;;;4989359;28;20087;-32
2023/11/02 13:09:28;;;;;;;4.32;2.65;;;9.30;99.90;;;;;;5000297;28;20499;-30
2023/11/02 13:11:55;;;;;;;2.80;2.50;;;9.40;99.90;;;;;;5010676;28;20022;-42
2023/11/02 13:14:25;;;;;;;2.53;2.33;;;9.40;99.90;;;;;;5007897;28;20029;-41
2023/11/02 13:16:55;;;;;;;3.80;2.70;;;9.40;99.90;;;;;;5005725;28;20025;-40